• Join FlightAware (Why Join?)
  • Login
  • US Flag 
09:50PM EDT


 

Airport Tracker/Info


-or-


 

Live Flight TrackerFlight Track Log ✈ DAL1550 ✈ 22-Apr-2013 ✈ KLAS - KMSP

Flight Track Log - Related Links

Times and Time Zones

All times are in EDT time to prevent confusion due to time zone crossing. See the DAL1550 flight status page for this flight to view local times or setup timezone preferences in your user account.

Time Position Orientation Groundspeed Altitude Reporting Facility
EDT Latitude Longitude Course Direction KTS MPH feet Rate Location/Type
10:24AM 36.0767 -115.1814 94° East 196 226 3,200  Level Los Angeles Center
10:24AM 36.0764 -115.2292 270° West 214 246 4,300 2,280 Climbing Los Angeles Center
10:25AM 36.1092 -115.2903 304° West 234 269 7,000 2,400 Climbing Los Angeles Center
10:26AM 36.1815 -115.1906 73° East  Level FlightAware Approximate
10:26AM 36.1250 -115.2919 355° North 237 273 7,700  Level Los Angeles Center
10:26AM 36.1669 -115.2686 24° Northeast 248 285 9,200 1,800 Climbing Los Angeles Center
10:27AM 36.1834 -115.0240 90° East  Level FlightAware Approximate
10:27AM 36.1769 -115.2486 58° Northeast 247 284 9,600  Level Los Angeles Center
10:27AM 36.1956 -115.1714 73° East 313 360 10,600 1,620 Climbing Los Angeles Center
10:28AM 36.1870 -114.8575 80° East  Level FlightAware Approximate
10:28AM 36.1978 -115.1486 83° East 295 339 11,300  Level Los Angeles Center
10:28AM 36.1969 -115.0589 91° East 333 383 13,000 2,220 Climbing Los Angeles Center
10:29AM 36.1954 -114.6922 94° East  Level FlightAware Approximate
10:29AM 36.1978 -115.0117 89° East 328 377 13,600  Level Los Angeles Center
10:30AM 36.1992 -114.8797 89° East 370 426 14,300 1,020 Climbing Los Angeles Center
10:31AM 36.2003 -114.7294 89° East 422 486 15,700 1,560 Climbing Los Angeles Center
10:32AM 36.1975 -114.5731 91° East 446 513 17,600 1,740 Climbing Los Angeles Center
10:33AM 36.1961 -114.4128 91° East 460 529 19,300 1,860 Climbing Los Angeles Center
10:34AM 36.2050 -114.2492 86° East 477 549 21,500 2,040 Climbing Los Angeles Center
10:35AM 36.2856 -114.1258 51° Northeast 469 540 23,600 2,100 Climbing Los Angeles Center
10:36AM 36.3847 -114.0011 45° Northeast 435 501 25,900 1,320 Climbing Los Angeles Center
10:37AM 36.4725 -113.8906 45° Northeast 442 509 26,400 660 Climbing Los Angeles Center
10:38AM 36.5575 -113.7806 46° Northeast 463 533 27,300 840 Climbing Los Angeles Center
10:40AM 36.7394 -113.5461 46° Northeast 471 542 29,000 540 Climbing Salt Lake Center
10:41AM 36.8367 -113.3894 52° Northeast 475 547 29,000  Level Los Angeles Center
10:42AM 36.9122 -113.2508 56° Northeast 482 555 29,000  Level Los Angeles Center
10:43AM 36.9878 -113.1125 56° Northeast 484 557 29,000  Level Los Angeles Center
10:44AM 37.0622 -112.9744 56° Northeast 483 556 29,000  Level Los Angeles Center
10:45AM 37.1364 -112.8364 56° Northeast 483 556 29,000  Level Salt Lake Center
10:46AM 37.2119 -112.6981 56° Northeast 485 558 29,000  Level Salt Lake Center
10:47AM 37.2869 -112.5586 56° Northeast 487 560 29,000  Level Salt Lake Center
10:48AM 37.3619 -112.4186 56° Northeast 488 562 29,000  Level Salt Lake Center
10:49AM 37.4531 -112.2503 56° Northeast 490 564 29,000  Level Salt Lake Center
10:50AM 37.5278 -112.1081 56° Northeast 490 564 29,000  Level Salt Lake Center
10:51AM 37.6047 -111.9656 56° Northeast 493 567 29,000  Level Salt Lake Center
10:52AM 37.6808 -111.8217 56° Northeast 495 570 29,000  Level Salt Lake Center
10:53AM 37.7561 -111.6797 56° Northeast 491 565 29,000  Level Salt Lake Center
10:54AM 37.8325 -111.5350 56° Northeast 495 570 29,000  Level Salt Lake Center
10:55AM 37.9067 -111.3900 57° Northeast 494 568 29,000  Level Salt Lake Center
10:56AM 37.9839 -111.2450 56° Northeast 496 571 29,000  Level Salt Lake Center
10:57AM 38.0567 -111.0981 58° Northeast 494 568 29,000  Level Denver Center
10:58AM 38.1325 -110.9508 57° Northeast 498 573 29,000  Level Denver Center
10:59AM 38.2072 -110.8047 57° Northeast 495 570 29,000  Level Denver Center
11:00AM 38.2925 -110.6394 57° Northeast 500 575 29,000  Level Denver Center
11:01AM 38.3642 -110.4967 57° Northeast 500 575 29,000  Level Denver Center
11:03AM 38.4478 -110.3297 57° Northeast 502 578 29,000  Level Denver Center
11:04AM 38.5200 -110.1878 57° Northeast 500 575 29,100 720 Climbing Denver Center
11:05AM 38.6031 -110.0211 57° Northeast 498 573 30,600 900 Climbing Denver Center
11:06AM 38.6750 -109.8786 57° Northeast 499 574 31,000 180 Climbing Denver Center
11:07AM 38.7575 -109.7097 58° Northeast 502 578 31,000  Level Denver Center
11:08AM 38.8283 -109.5647 58° Northeast 504 580 31,000  Level Denver Center
11:09AM 38.9119 -109.3947 58° Northeast 504 580 31,000  Level Denver Center
11:10AM 38.9836 -109.2486 58° Northeast 507 583 31,000  Level Denver Center
11:11AM 39.0669 -109.0781 58° Northeast 506 582 31,000  Level Denver Center
11:12AM 39.1381 -108.9308 58° Northeast 507 583 31,000  Level Denver Center
11:13AM 39.2206 -108.7581 58° Northeast 510 587 31,000  Level Denver Center
11:14AM 39.2922 -108.6100 58° Northeast 512 589 31,000  Level Denver Center
11:15AM 39.3764 -108.4367 58° Northeast 515 593 31,000  Level Denver Center
11:16AM 39.4475 -108.2869 58° Northeast 501 577 31,000  Level Denver Center
11:17AM 39.5289 -108.1125 59° Northeast 509 586 31,000  Level Denver Center
11:18AM 39.6008 -107.9625 58° Northeast 513 590 31,000  Level Denver Center
11:19AM 39.6828 -107.7839 59° Northeast 517 595 31,000  Level Denver Center
11:20AM 39.7531 -107.6314 59° Northeast 516 594 31,000  Level Denver Center
11:21AM 39.8358 -107.4531 59° Northeast 517 595 31,000  Level Denver Center
11:22AM 39.9069 -107.2983 59° Northeast 520 598 31,000  Level Denver Center
11:23AM 39.9900 -107.1167 59° Northeast 523 602 31,000  Level Denver Center
11:24AM 40.0608 -106.9614 59° Northeast 523 602 31,000  Level Denver Center
11:25AM 40.1436 -106.7764 60° Northeast 528 608 31,000  Level Denver Center
11:26AM 40.2197 -106.6108 59° Northeast 525 604 31,000  Level Denver Center
11:27AM 40.2958 -106.4358 60° Northeast 522 601 31,000  Level Denver Center
11:28AM 40.3675 -106.2783 59° Northeast 525 604 31,000  Level Denver Center
11:29AM 40.4364 -106.1181 61° Northeast 517 595 31,000  Level Denver Center
11:30AM 40.5092 -105.9517 60° Northeast 516 594 31,000  Level Denver Center
11:31AM 40.5944 -105.7567 60° Northeast 519 597 31,000  Level Denver Center
11:32AM 40.6669 -105.5914 60° Northeast 516 594 31,000  Level Denver Center
11:34AM 40.7383 -105.4247 60° Northeast 515 593 31,000  Level Denver Center
11:35AM 40.8100 -105.2597 60° Northeast 511 588 31,000  Level Denver Center
11:36AM 40.8814 -105.0911 61° Northeast 516 594 31,000  Level Denver Center
11:37AM 40.9519 -104.9231 61° Northeast 517 595 31,000  Level Denver Center
11:38AM 41.0286 -104.7431 61° Northeast 511 588 31,000  Level Denver Center
11:39AM 41.0950 -104.5842 61° Northeast 512 589 31,000  Level Denver Center
11:40AM 41.1722 -104.4011 61° Northeast 512 589 31,000  Level Denver Center
11:41AM 41.2369 -104.2481 61° Northeast 502 578 31,000  Level Denver Center
11:42AM 41.3108 -104.0681 61° Northeast 498 573 31,000  Level Denver Center
11:43AM 41.3739 -103.9136 61° Northeast 497 572 31,000  Level Denver Center
11:44AM 41.4467 -103.7367 61° Northeast 489 563 31,000  Level Denver Center
11:45AM 41.5097 -103.5803 62° Northeast 500 575 31,000  Level Denver Center
11:46AM 41.5628 -103.4500 61° Northeast 502 578 31,000  Level Denver Center
11:47AM 41.6447 -103.2439 62° Northeast 496 571 31,000  Level Denver Center
11:48AM 41.7175 -103.0633 62° Northeast 495 570 31,000  Level Denver Center
11:49AM 41.7781 -102.9108 62° Northeast 487 560 31,000  Level Denver Center
11:50AM 41.8489 -102.7300 62° Northeast 491 565 31,000  Level Denver Center
11:51AM 41.9097 -102.5764 62° Northeast 488 562 31,000  Level Denver Center
11:52AM 41.9783 -102.3997 62° Northeast 480 552 31,000  Level Denver Center
11:53AM 42.0361 -102.2489 63° Northeast 477 549 31,000 -480 Level Denver Center
11:54AM 42.1000 -102.0872 62° Northeast 473 544 30,000 -960 Descending Denver Center
11:55AM 42.1556 -101.9403 63° Northeast 463 533 29,100 -1,380 Descending Denver Center
11:56AM 42.2225 -101.7644 63° Northeast 468 539 27,200 -1,020 Descending Denver Center
11:57AM 42.2825 -101.6083 63° Northeast 484 557 27,000 -120 Descending Denver Center
11:58AM 42.3522 -101.4239 63° Northeast 491 565 27,000  Level Denver Center
11:59AM 42.4106 -101.2686 63° Northeast 487 560 27,000 -120 Level Denver Center
12:00PM 42.4775 -101.0872 63° Northeast 482 555 26,800 -720 Descending Denver Center
12:01PM 42.5353 -100.9314 63° Northeast 484 557 25,600 -900 Descending Denver Center
12:03PM 42.6022 -100.7486 63° Northeast 483 556 25,000 -300 Descending Denver Center
12:04PM 42.6589 -100.5942 63° Northeast 480 552 25,000  Level Denver Center
12:05PM 42.7250 -100.4131 64° Northeast 479 551 25,000  Level Denver Center
12:06PM 42.7811 -100.2558 64° Northeast 480 552 25,000  Level Denver Center
12:07PM 42.8403 -100.0914 64° Northeast 485 558 25,000  Level Denver Center
12:07PM 42.8878 -99.9625 63° Northeast 482 555 25,000  Level Minneapolis Center
12:08PM 42.9458 -99.7986 64° Northeast 482 555 25,000  Level Minneapolis Center
12:10PM 43.0114 -99.6142 64° Northeast 482 555 25,000  Level Minneapolis Center
12:11PM 43.0686 -99.4492 65° Northeast 480 552 25,000  Level Minneapolis Center
12:12PM 43.1311 -99.2731 64° Northeast 480 552 25,000  Level Minneapolis Center
12:13PM 43.1886 -99.1044 65° Northeast 487 560 25,000  Level Minneapolis Center
12:14PM 43.2489 -98.9317 64° Northeast 484 557 25,000  Level Minneapolis Center
12:15PM 43.3056 -98.7664 65° Northeast 481 554 25,000  Level Minneapolis Center
12:16PM 43.3617 -98.6008 65° Northeast 480 552 25,000  Level Minneapolis Center
12:17PM 43.4178 -98.4347 65° Northeast 480 552 25,000  Level Minneapolis Center
12:18PM 43.4747 -98.2664 65° Northeast 485 558 25,000  Level Minneapolis Center
12:19PM 43.5300 -98.0994 65° Northeast 482 555 25,000  Level Minneapolis Center
12:20PM 43.5967 -97.8983 65° Northeast 481 554 25,000  Level Minneapolis Center
12:21PM 43.6531 -97.7308 65° Northeast 482 555 25,000  Level Minneapolis Center
12:22PM 43.7072 -97.5631 66° East 480 552 25,000  Level Minneapolis Center
12:23PM 43.7619 -97.3956 66° East 479 551 25,000  Level Minneapolis Center
12:24PM 43.8167 -97.2269 66° East 482 555 25,000  Level Minneapolis Center
12:25PM 43.8706 -97.0586 66° East 483 556 25,000  Level Minneapolis Center
12:26PM 43.9247 -96.8900 66° East 481 554 25,000  Level Minneapolis Center
12:27PM 43.9778 -96.7211 66° East 479 551 25,000  Level Minneapolis Center
12:28PM 44.0417 -96.5169 66° East 481 554 25,000  Level Minneapolis Center
12:29PM 44.0950 -96.3489 66° East 478 550 25,000  Level Minneapolis Center
12:30PM 44.1453 -96.1883 66° East 471 542 25,000  Level Minneapolis Center
12:31PM 44.1947 -96.0297 66° East 469 540 25,000  Level Minneapolis Center
12:32PM 44.2461 -95.8636 67° East 470 541 25,000  Level Minneapolis Center
12:33PM 44.3075 -95.6625 67° East 471 542 25,000  Level Minneapolis Center
12:34PM 44.3578 -95.4939 67° East 473 544 25,000 -480 Level Minneapolis Center
12:35PM 44.4083 -95.3256 67° East 472 543 24,100 -540 Descending Minneapolis Center
12:36PM 44.4586 -95.1572 67° East 471 542 24,000 -420 Descending Minneapolis Center
12:37PM 44.5036 -94.9853 70° East 472 543 23,300 -1,620 Descending Minneapolis Center
12:38PM 44.5433 -94.8139 72° East 467 537 20,700 -2,460 Descending Minneapolis Center
12:39PM 44.5800 -94.6481 73° East 454 522 18,300 -2,460 Descending Minneapolis Center
12:40PM 44.6244 -94.4586 72° East 428 493 15,700 -2,340 Descending Minneapolis Center
12:41PM 44.6422 -94.3994 67° East 411 473 14,800 -2,280 Descending FAA TRACON SMA TRACON (SMA)
12:41PM 44.6556 -94.3419 72° East 403 464 13,900 -2,400 Descending FAA TRACON SMA TRACON (SMA)
12:41PM 44.6653 -94.2967 73° East 398 458 13,200 -1,980 Descending FAA TRACON SMA TRACON (SMA)
12:42PM 44.6747 -94.2514 74° East 394 453 12,600 -2,280 Descending FAA TRACON SMA TRACON (SMA)
12:42PM 44.6875 -94.1961 72° East 388 447 11,700 -2,280 Descending FAA TRACON SMA TRACON (SMA)
12:42PM 44.6969 -94.1525 73° East 384 442 11,100 -1,080 Descending FAA TRACON SMA TRACON (SMA)
12:43PM 44.7058 -94.1097 74° East 375 432 11,000 -180 Descending FAA TRACON SMA TRACON (SMA)
12:43PM 44.7181 -94.0567 72° East 369 425 11,000  Level FAA TRACON SMA TRACON (SMA)
12:43PM 44.7269 -94.0139 74° East 371 427 11,000  Level FAA TRACON SMA TRACON (SMA)
12:44PM 44.7383 -93.9603 73° East 372 428 11,000  Level FAA TRACON SMA TRACON (SMA)
12:44PM 44.7478 -93.9178 73° East 372 428 11,000  Level FAA TRACON SMA TRACON (SMA)
12:44PM 44.7567 -93.8744 74° East 374 430 11,000  Level FAA TRACON SMA TRACON (SMA)
12:45PM 44.7694 -93.8214 71° East 374 430 11,000  Level FAA TRACON SMA TRACON (SMA)
12:45PM 44.7781 -93.7783 74° East 372 428 11,000  Level FAA TRACON SMA TRACON (SMA)
12:45PM 44.7872 -93.7358 73° East 372 428 11,000  Level FAA TRACON SMA TRACON (SMA)
12:46PM 44.7967 -93.6931 73° East 372 428 11,000 -660 Level FAA TRACON SMA TRACON (SMA)
12:46PM 44.8086 -93.6419 72° East 361 415 10,600 -1,080 Descending FAA TRACON SMA TRACON (SMA)
12:46PM 44.8161 -93.6025 75° East 346 398 10,300 -780 Descending FAA TRACON SMA TRACON (SMA)
12:47PM 44.8250 -93.5650 72° East 331 381 10,100 -600 Descending FAA TRACON SMA TRACON (SMA)
12:47PM 44.8342 -93.5211 74° East 310 357 9,900 -1,080 Descending FAA TRACON SMA TRACON (SMA)
12:47PM 44.8419 -93.4867 72° East 300 345 9,400 -1,380 Descending FAA TRACON SMA TRACON (SMA)
12:48PM 44.8492 -93.4531 73° East 294 338 9,000 -1,620 Descending FAA TRACON SMA TRACON (SMA)
12:48PM 44.8575 -93.4106 75° East 293 337 8,300 -1,500 Descending FAA TRACON SMA TRACON (SMA)
12:48PM 44.8531 -93.3781 101° East 290 334 8,000 -480 Descending FAA TRACON SMA TRACON (SMA)
12:49PM 44.8331 -93.3544 140° Southeast 265 305 8,000 -780 Level FAA TRACON SMA TRACON (SMA)
12:49PM 44.8144 -93.3472 165° South 233 268 7,500 -1,200 Descending FAA TRACON SMA TRACON (SMA)
12:49PM 44.7964 -93.3394 163° South 221 254 7,200 -1,260 Descending FAA TRACON SMA TRACON (SMA)
12:50PM 44.7747 -93.3275 159° South 217 250 6,600 -1,680 Descending FAA TRACON SMA TRACON (SMA)
12:50PM 44.7528 -93.3167 161° South 219 252 6,000 -1,500 Descending FAA TRACON SMA TRACON (SMA)
12:50PM 44.7394 -93.3097 160° South 218 251 5,700 -1,320 Descending FAA TRACON SMA TRACON (SMA)
12:51PM 44.7175 -93.2992 161° South 217 250 5,200 -1,200 Descending FAA TRACON SMA TRACON (SMA)
12:51PM 44.7008 -93.2911 161° South 211 243 4,900 -1,080 Descending FAA TRACON SMA TRACON (SMA)
12:51PM 44.6892 -93.2742 134° Southeast 208 239 4,500 -1,380 Descending FAA TRACON SMA TRACON (SMA)
12:52PM 44.6889 -93.2464 91° East 199 229 4,000 -900 Descending FAA TRACON SMA TRACON (SMA)
12:52PM 44.6911 -93.2242 82° East 189 217 3,900 -960 Descending FAA TRACON SMA TRACON (SMA)
12:52PM 44.7017 -93.2086 46° Northeast 189 217 3,400 -1,560 Descending FAA TRACON SMA TRACON (SMA)
12:53PM 44.7189 -93.1961 27° Northeast 187 215 2,900 -1,500 Descending FAA TRACON SMA TRACON (SMA)